DE-0004 weather

Gransee Airport
Gransee, Brandenburg, Germany

Public forecast

Using degrees Celsius for public forecast. Weather courtesy of forecast.io.

METAR (pilot weather report)

Closest report is Berlin-Tegel Airport, 27.0 nm (50.0 km) S. Retrieved 2019/08/22 08:20 UTC (15 minutes ago):

EDDT 220820Z 14006KT 110V170 CAVOK 22/09 Q1028 NOSIG

TAF (pilot weather forecast)

Closest forecast is Berlin-Tegel Airport, 27.0 nm (50.0 km) S. Retrieved 2019/08/22 06:27 UTC (2 hours ago):

TAF EDDT 220500Z 2206/2306 VRB02KT CAVOK BECMG 2206/2208 15007KT BECMG 2217/2219 VRB02KT